createdAt,value
2018-12-13T00:01:44.322Z,84.80
2018-12-13T00:04:12.851Z,84.90
2018-12-13T00:06:41.394Z,84.90
2018-12-13T00:09:09.926Z,85.10
2018-12-13T00:11:38.477Z,85.20
2018-12-13T00:14:07.030Z,85.10
2018-12-13T00:16:35.549Z,85.20
2018-12-13T00:19:04.213Z,85.30
2018-12-13T00:21:32.726Z,85.30
2018-12-13T00:24:01.290Z,85.50
2018-12-13T00:26:30.095Z,85.50
2018-12-13T00:28:58.630Z,85.40
2018-12-13T00:31:27.205Z,85.40
2018-12-13T00:33:55.862Z,85.50
2018-12-13T00:36:24.405Z,85.50
2018-12-13T00:38:52.954Z,85.40
2018-12-13T00:41:21.477Z,85.50
2018-12-13T00:43:50.035Z,85.30
2018-12-13T00:46:18.577Z,85.30
2018-12-13T00:48:47.101Z,85.10
2018-12-13T00:51:15.609Z,84.90
2018-12-13T00:53:44.154Z,84.60
2018-12-13T00:56:12.698Z,84.50
2018-12-13T00:58:41.230Z,84.50
2018-12-13T01:01:09.831Z,84.50
2018-12-13T01:03:38.382Z,84.60
2018-12-13T01:06:06.927Z,84.60
2018-12-13T01:08:35.494Z,84.50
2018-12-13T01:11:04.039Z,84.30
2018-12-13T01:13:32.613Z,84.10
2018-12-13T01:16:01.164Z,83.90
2018-12-13T01:18:29.698Z,84.30
2018-12-13T01:20:58.354Z,83.50
2018-12-13T01:23:26.878Z,83.50
2018-12-13T01:25:55.416Z,84.30
2018-12-13T01:28:23.930Z,83.70
2018-12-13T01:30:52.495Z,83.70
2018-12-13T01:33:21.031Z,83.90
2018-12-13T01:35:49.546Z,83.90
2018-12-13T01:38:18.066Z,84.10
2018-12-13T01:40:46.600Z,84.20
2018-12-13T01:43:15.159Z,83.90
2018-12-13T01:45:43.706Z,83.80
2018-12-13T01:48:12.341Z,83.40
2018-12-13T01:50:40.870Z,83.20
2018-12-13T01:53:09.434Z,82.70
2018-12-13T01:55:37.982Z,82.60
2018-12-13T01:58:06.910Z,82.60
2018-12-13T02:00:35.494Z,82.60
2018-12-13T02:03:04.168Z,82.60
2018-12-13T02:05:32.694Z,82.50
2018-12-13T02:08:01.244Z,82.30
2018-12-13T02:10:30.185Z,82.30
2018-12-13T02:12:58.726Z,82.30
2018-12-13T02:15:27.984Z,82.50
2018-12-13T02:18:10.333Z,82.50
2018-12-13T02:20:47.852Z,82.50
2018-12-13T02:23:16.434Z,82.50
2018-12-13T02:25:44.979Z,82.60
2018-12-13T02:28:13.509Z,82.50
2018-12-13T02:30:42.066Z,82.40
2018-12-13T02:33:11.055Z,82.50
2018-12-13T02:35:39.613Z,82.50
2018-12-13T02:38:08.145Z,82.50
2018-12-13T02:40:36.715Z,82.40
2018-12-13T02:43:05.304Z,82.50
2018-12-13T02:45:33.852Z,82.40
2018-12-13T02:48:02.389Z,82.40
2018-12-13T02:50:30.933Z,82.30
2018-12-13T02:52:59.459Z,82.30
2018-12-13T02:55:28.005Z,82.30
2018-12-13T02:57:56.559Z,82.20
2018-12-13T03:00:25.434Z,82.20
2018-12-13T03:02:53.982Z,82.20
2018-12-13T03:05:22.495Z,82.10
2018-12-13T03:07:51.054Z,81.70
2018-12-13T03:10:19.587Z,81.70
2018-12-13T03:12:48.485Z,81.50
2018-12-13T03:15:17.030Z,81.40
2018-12-13T03:17:45.562Z,81.30
2018-12-13T03:20:14.250Z,81.20
2018-12-13T03:22:42.765Z,81.30
2018-12-13T03:25:11.335Z,81.10
2018-12-13T03:27:39.878Z,81.00
2018-12-13T03:30:08.733Z,81.10
2018-12-13T03:32:37.338Z,81.10
2018-12-13T03:35:06.176Z,81.10
2018-12-13T03:37:34.746Z,80.90
2018-12-13T03:40:04.028Z,80.50
2018-12-13T03:42:32.591Z,80.60
2018-12-13T03:45:01.125Z,81.00
2018-12-13T03:47:29.649Z,80.80
2018-12-13T03:49:58.199Z,80.90
2018-12-13T03:52:26.757Z,80.90
2018-12-13T03:54:55.302Z,81.00
2018-12-13T03:57:24.062Z,81.00
2018-12-13T03:59:52.599Z,80.80
2018-12-13T04:02:21.130Z,80.60
2018-12-13T04:04:49.693Z,80.70
2018-12-13T04:07:18.246Z,80.60
2018-12-13T04:09:46.792Z,80.60
2018-12-13T04:12:15.357Z,80.50
2018-12-13T04:14:43.909Z,80.50
2018-12-13T04:17:12.438Z,80.60
2018-12-13T04:19:40.977Z,80.70
2018-12-13T04:22:09.551Z,80.60
2018-12-13T04:24:38.089Z,80.40
2018-12-13T04:27:06.605Z,80.30
2018-12-13T04:29:35.138Z,80.20
2018-12-13T04:32:03.663Z,80.30
2018-12-13T04:34:32.202Z,80.40
2018-12-13T04:37:00.738Z,80.00
2018-12-13T04:39:29.590Z,79.90
2018-12-13T04:41:58.120Z,80.00
2018-12-13T04:44:26.658Z,79.50
2018-12-13T04:46:55.190Z,79.40
2018-12-13T04:49:24.071Z,79.50
2018-12-13T04:51:52.625Z,79.30
2018-12-13T04:54:21.166Z,79.20
2018-12-13T04:56:49.715Z,79.20
2018-12-13T04:59:18.251Z,79.30
2018-12-13T05:01:46.805Z,79.40
2018-12-13T05:04:15.341Z,79.30
2018-12-13T05:06:43.900Z,79.20
2018-12-13T05:09:12.454Z,79.30
2018-12-13T05:11:40.979Z,79.10
2018-12-13T05:14:09.550Z,79.10
2018-12-13T05:16:38.091Z,79.00
2018-12-13T05:19:06.622Z,79.10
2018-12-13T05:21:35.210Z,79.20
2018-12-13T05:24:03.887Z,79.30
2018-12-13T05:26:32.428Z,79.40
2018-12-13T05:29:00.978Z,79.20
2018-12-13T05:31:29.526Z,79.50
2018-12-13T05:33:58.082Z,79.50
2018-12-13T05:36:26.643Z,79.30
2018-12-13T05:38:55.214Z,79.30
2018-12-13T05:41:23.774Z,79.50
2018-12-13T05:43:54.309Z,79.80
2018-12-13T05:46:22.918Z,79.70
2018-12-13T05:48:51.610Z,79.50
2018-12-13T05:51:20.142Z,79.60
2018-12-13T05:53:48.669Z,79.60
2018-12-13T05:56:17.220Z,79.50
2018-12-13T05:58:45.777Z,79.50
2018-12-13T06:01:14.313Z,79.50
2018-12-13T06:03:42.865Z,79.10
2018-12-13T06:06:11.422Z,79.00
2018-12-13T06:08:39.969Z,78.80
2018-12-13T06:11:08.517Z,78.80
2018-12-13T06:13:37.078Z,78.80
2018-12-13T06:16:05.610Z,78.90
2018-12-13T06:18:34.146Z,78.60
2018-12-13T06:21:02.685Z,78.50
2018-12-13T06:23:31.222Z,78.70
2018-12-13T06:26:00.068Z,78.60
2018-12-13T06:28:28.602Z,78.60
2018-12-13T06:30:57.451Z,78.60
2018-12-13T06:33:25.994Z,78.80
2018-12-13T06:35:54.566Z,78.90
2018-12-13T06:38:23.106Z,78.80
2018-12-13T06:40:51.657Z,78.80
2018-12-13T06:43:20.187Z,78.90
2018-12-13T06:45:48.722Z,79.00
2018-12-13T06:48:17.242Z,79.00
2018-12-13T06:50:46.015Z,79.20
2018-12-13T06:53:14.566Z,79.10
2018-12-13T06:55:43.099Z,79.40
2018-12-13T06:58:11.637Z,79.50
2018-12-13T07:00:40.254Z,79.40
2018-12-13T07:03:09.091Z,79.60
2018-12-13T07:05:37.634Z,79.50
2018-12-13T07:08:07.922Z,79.60
2018-12-13T07:10:36.650Z,79.70
2018-12-13T07:13:05.188Z,79.40
2018-12-13T07:15:33.711Z,79.30
2018-12-13T07:18:02.243Z,79.40
2018-12-13T07:20:30.767Z,79.40
2018-12-13T07:22:59.315Z,79.70
2018-12-13T07:25:27.833Z,79.70
2018-12-13T07:27:56.366Z,79.70
2018-12-13T07:30:24.894Z,79.80
2018-12-13T07:32:53.433Z,79.80
2018-12-13T07:35:21.963Z,79.80
2018-12-13T07:37:50.830Z,79.70
2018-12-13T07:40:19.396Z,79.80
2018-12-13T07:42:47.945Z,79.90
2018-12-13T07:45:16.487Z,79.90
2018-12-13T07:47:45.041Z,80.00
2018-12-13T07:50:13.576Z,80.10
2018-12-13T07:52:42.141Z,80.20
2018-12-13T07:55:10.786Z,80.20
2018-12-13T07:57:39.358Z,80.40
2018-12-13T08:00:08.370Z,80.60
2018-12-13T08:02:37.389Z,80.40
2018-12-13T08:05:07.090Z,80.50
2018-12-13T08:07:35.626Z,80.60
2018-12-13T08:10:04.461Z,80.60
2018-12-13T08:12:32.999Z,80.70
2018-12-13T08:15:01.547Z,80.70
2018-12-13T08:17:30.195Z,80.80
2018-12-13T08:19:58.782Z,80.70
2018-12-13T08:22:27.394Z,80.40
2018-12-13T08:24:56.015Z,80.70
2018-12-13T08:27:24.606Z,80.00
2018-12-13T08:29:53.208Z,79.80
2018-12-13T08:32:21.829Z,80.00
2018-12-13T08:34:50.458Z,79.90
2018-12-13T08:37:19.414Z,79.90
2018-12-13T08:39:48.030Z,79.90
2018-12-13T08:42:16.651Z,79.70
2018-12-13T08:44:45.258Z,79.70
2018-12-13T08:47:13.850Z,79.90
2018-12-13T08:49:42.455Z,80.10
2018-12-13T08:52:11.046Z,80.40
2018-12-13T08:54:39.690Z,80.70
2018-12-13T08:57:08.270Z,80.70
2018-12-13T08:59:36.858Z,80.70
2018-12-13T09:02:05.641Z,80.60
2018-12-13T09:04:34.278Z,80.80
2018-12-13T09:07:02.875Z,80.80
2018-12-13T09:09:31.467Z,80.70
2018-12-13T09:12:00.052Z,80.70
2018-12-13T09:14:28.662Z,80.60
2018-12-13T09:16:57.299Z,80.80
2018-12-13T09:19:26.154Z,80.90
2018-12-13T09:21:54.774Z,81.10
2018-12-13T09:24:23.397Z,81.30
2018-12-13T09:26:52.010Z,81.30
2018-12-13T09:29:20.602Z,81.00
2018-12-13T09:31:49.234Z,81.10
2018-12-13T09:34:17.850Z,80.90
2018-12-13T09:36:46.478Z,80.80
2018-12-13T09:39:15.086Z,80.70
2018-12-13T09:41:43.677Z,80.80
2018-12-13T09:44:16.673Z,80.90
2018-12-13T09:46:46.762Z,80.80
2018-12-13T09:49:15.357Z,80.90
2018-12-13T09:51:43.959Z,80.90
2018-12-13T09:54:12.573Z,80.90
2018-12-13T09:56:41.193Z,80.90
2018-12-13T09:59:09.771Z,80.80
2018-12-13T10:01:38.371Z,80.80
2018-12-13T10:04:06.980Z,81.00
2018-12-13T10:06:35.635Z,80.90
2018-12-13T10:09:06.634Z,80.80
2018-12-13T10:11:35.506Z,80.60
2018-12-13T10:14:04.190Z,80.30
2018-12-13T10:16:32.843Z,80.10
2018-12-13T10:19:01.453Z,80.10
2018-12-13T10:21:30.035Z,80.20
2018-12-13T10:23:58.634Z,80.10
2018-12-13T10:26:27.257Z,80.00
2018-12-13T10:28:55.845Z,79.80
2018-12-13T10:31:24.671Z,79.50
2018-12-13T10:33:53.637Z,79.20
2018-12-13T10:36:22.371Z,79.20
2018-12-13T10:38:53.158Z,79.00
2018-12-13T10:41:21.588Z,79.10
2018-12-13T10:43:50.198Z,78.80
2018-12-13T10:46:18.793Z,78.60
2018-12-13T10:48:47.405Z,78.30
2018-12-13T10:51:16.021Z,77.80
2018-12-13T10:53:44.626Z,77.70
2018-12-13T10:56:13.231Z,78.10
2018-12-13T10:58:41.846Z,78.00
2018-12-13T11:01:15.755Z,77.70
2018-12-13T11:03:44.373Z,77.40
2018-12-13T11:06:12.982Z,77.60
2018-12-13T11:08:41.666Z,77.30
2018-12-13T11:11:10.271Z,77.30
2018-12-13T11:13:39.008Z,77.30
2018-12-13T11:16:07.634Z,77.30
2018-12-13T11:18:36.257Z,77.30
2018-12-13T11:21:04.884Z,77.00
2018-12-13T11:23:33.533Z,76.70
2018-12-13T11:26:02.104Z,76.70
2018-12-13T11:30:43.090Z,77.30
2018-12-13T11:33:11.802Z,77.60
2018-12-13T11:35:40.416Z,77.60
2018-12-13T11:38:09.001Z,77.30
2018-12-13T11:40:37.851Z,77.50
2018-12-13T11:43:06.494Z,77.30
2018-12-13T11:45:35.156Z,77.00
2018-12-13T11:48:03.800Z,76.70
2018-12-13T11:50:32.522Z,76.70
2018-12-13T11:53:01.118Z,76.90
2018-12-13T11:55:33.699Z,76.90
2018-12-13T11:58:03.006Z,77.20
2018-12-13T12:00:31.608Z,77.20
2018-12-13T12:03:00.218Z,77.00
2018-12-13T12:05:28.836Z,77.10
2018-12-13T12:07:57.421Z,76.90
2018-12-13T12:10:26.066Z,77.20
2018-12-13T12:12:54.667Z,77.60
2018-12-13T12:15:23.292Z,77.40
2018-12-13T12:17:51.910Z,77.30
2018-12-13T12:20:20.504Z,77.10
2018-12-13T12:22:49.101Z,76.80
2018-12-13T12:25:17.706Z,76.50
2018-12-13T12:27:46.306Z,76.30
2018-12-13T12:30:14.928Z,76.00
2018-12-13T12:32:43.571Z,75.60
2018-12-13T12:35:12.289Z,75.60
2018-12-13T12:37:40.904Z,75.70
2018-12-13T12:40:09.970Z,75.80
2018-12-13T12:42:38.819Z,76.00
2018-12-13T12:45:07.899Z,75.70
2018-12-13T12:47:36.511Z,75.70
2018-12-13T12:50:06.865Z,75.60
2018-12-13T12:52:35.484Z,75.70
2018-12-13T12:55:04.368Z,75.60
2018-12-13T12:57:32.995Z,76.30
2018-12-13T13:00:01.584Z,76.30
2018-12-13T13:02:31.232Z,76.20
2018-12-13T13:04:59.827Z,76.20
2018-12-13T13:07:28.462Z,75.90
2018-12-13T13:09:57.046Z,75.80
2018-12-13T13:12:25.587Z,75.80
2018-12-13T13:14:54.205Z,75.80
2018-12-13T13:17:22.810Z,75.90
2018-12-13T13:19:51.410Z,76.20
2018-12-13T13:22:19.982Z,75.90
2018-12-13T13:24:48.681Z,75.60
2018-12-13T13:27:17.425Z,75.70
2018-12-13T13:29:46.066Z,75.70
2018-12-13T13:32:14.679Z,75.40
2018-12-13T13:34:43.326Z,75.10
2018-12-13T13:37:11.922Z,75.20
2018-12-13T13:39:40.525Z,75.20
2018-12-13T13:42:09.117Z,75.50
2018-12-13T13:44:38.921Z,75.30
2018-12-13T13:47:07.651Z,75.40
2018-12-13T13:49:36.259Z,75.30
2018-12-13T13:52:04.904Z,75.30
2018-12-13T13:54:33.516Z,75.20
2018-12-13T13:57:02.127Z,75.30
2018-12-13T13:59:30.731Z,75.20
2018-12-13T14:01:59.324Z,75.00
2018-12-13T14:04:27.924Z,75.20
2018-12-13T14:06:56.516Z,75.20
2018-12-13T14:09:25.138Z,74.90
2018-12-13T14:11:53.725Z,74.70
2018-12-13T14:14:22.351Z,74.40
2018-12-13T14:16:50.971Z,74.50
2018-12-13T14:19:20.660Z,74.60
2018-12-13T14:21:49.433Z,74.50
2018-12-13T14:24:18.053Z,74.60
2018-12-13T14:26:46.676Z,74.40
2018-12-13T14:29:15.291Z,74.60
2018-12-13T14:31:43.914Z,74.50
2018-12-13T14:34:12.513Z,74.40
2018-12-13T14:36:41.119Z,74.20
2018-12-13T14:39:09.747Z,74.10
2018-12-13T14:41:38.396Z,73.70
2018-12-13T14:44:07.123Z,73.50
2018-12-13T14:46:35.810Z,73.30
2018-12-13T14:49:04.567Z,73.40
2018-12-13T14:51:33.181Z,73.20
2018-12-13T14:54:01.835Z,73.50
2018-12-13T14:56:30.470Z,73.40
2018-12-13T14:58:59.071Z,73.40
2018-12-13T15:01:28.561Z,72.70
2018-12-13T15:03:57.154Z,73.00
2018-12-13T15:06:25.901Z,73.00
2018-12-13T15:08:54.754Z,73.20
2018-12-13T15:11:23.346Z,74.10
2018-12-13T15:13:51.939Z,73.50
2018-12-13T15:16:20.556Z,73.50
2018-12-13T15:18:49.232Z,73.70
2018-12-13T15:21:17.834Z,73.70
2018-12-13T15:23:46.450Z,73.70
2018-12-13T15:26:15.046Z,73.60
2018-12-13T15:28:43.698Z,73.50
2018-12-13T15:31:12.317Z,73.30
2018-12-13T15:33:40.921Z,73.10
2018-12-13T15:36:09.541Z,73.00
2018-12-13T15:38:38.148Z,72.90
2018-12-13T15:41:06.734Z,73.10
2018-12-13T15:43:35.346Z,73.20
2018-12-13T15:46:03.945Z,73.00
2018-12-13T15:48:32.540Z,73.00
2018-12-13T15:51:01.142Z,73.00
2018-12-13T15:53:29.980Z,72.90
2018-12-13T15:55:58.606Z,72.80
2018-12-13T15:58:27.206Z,73.60
2018-12-13T16:00:55.818Z,73.00
2018-12-13T16:03:24.421Z,73.00
2018-12-13T16:05:53.022Z,73.10
2018-12-13T16:08:21.736Z,73.10
2018-12-13T16:10:50.325Z,73.00
2018-12-13T16:13:18.946Z,72.80
2018-12-13T16:15:47.559Z,72.90
2018-12-13T16:18:16.162Z,72.90
2018-12-13T16:20:44.787Z,72.80
2018-12-13T16:23:13.394Z,73.00
2018-12-13T16:25:41.973Z,73.10
2018-12-13T16:28:10.584Z,73.00
2018-12-13T16:30:39.171Z,73.00
2018-12-13T16:33:08.150Z,72.70
2018-12-13T16:35:36.746Z,72.80
2018-12-13T16:38:05.366Z,72.70
2018-12-13T16:40:34.115Z,72.80
2018-12-13T16:43:02.730Z,73.00
2018-12-13T16:45:31.304Z,73.40
2018-12-13T16:47:59.895Z,73.60
2018-12-13T16:50:28.517Z,73.50
2018-12-13T16:52:57.124Z,73.60
2018-12-13T16:55:25.754Z,73.70
2018-12-13T16:57:54.370Z,73.70
2018-12-13T17:00:22.961Z,73.70
2018-12-13T17:02:51.558Z,73.50
2018-12-13T17:05:20.201Z,73.50
2018-12-13T17:07:48.814Z,73.50
2018-12-13T17:10:17.406Z,73.60
2018-12-13T17:12:45.997Z,73.60
2018-12-13T17:15:14.678Z,73.70
2018-12-13T17:17:43.263Z,73.80
2018-12-13T17:20:12.001Z,73.80
2018-12-13T17:22:40.619Z,73.90
2018-12-13T17:25:09.219Z,73.80
2018-12-13T17:27:37.818Z,73.80
2018-12-13T17:30:08.075Z,73.90
2018-12-13T17:32:36.674Z,73.80
2018-12-13T17:35:05.510Z,73.90
2018-12-13T17:37:34.136Z,73.90
2018-12-13T17:40:02.766Z,73.80
2018-12-13T17:42:31.366Z,73.80
2018-12-13T17:45:00.068Z,73.70
2018-12-13T17:47:28.670Z,73.60
2018-12-13T17:49:57.280Z,73.20
2018-12-13T17:52:25.910Z,72.90
2018-12-13T17:54:54.512Z,72.80
2018-12-13T17:57:23.085Z,73.00
2018-12-13T17:59:51.733Z,73.00
2018-12-13T18:02:20.371Z,73.70
2018-12-13T18:04:48.983Z,73.00
2018-12-13T18:07:17.582Z,72.70
2018-12-13T18:09:46.183Z,72.90
2018-12-13T18:12:14.782Z,72.90
2018-12-13T18:14:43.387Z,73.50
2018-12-13T18:17:11.999Z,72.90
2018-12-13T18:19:40.606Z,72.90
2018-12-13T18:22:09.190Z,72.80
2018-12-13T18:24:37.814Z,72.80
2018-12-13T18:27:06.454Z,73.00
2018-12-13T18:29:35.034Z,73.10
2018-12-13T18:32:03.835Z,73.10
2018-12-13T18:34:32.438Z,73.90
2018-12-13T18:37:01.041Z,73.30
2018-12-13T18:39:29.662Z,73.40
2018-12-13T18:41:58.357Z,73.40
2018-12-13T18:44:26.974Z,73.60
2018-12-13T18:46:55.660Z,73.70
2018-12-13T18:49:24.270Z,73.50
2018-12-13T18:51:52.884Z,73.50
2018-12-13T18:54:21.482Z,73.40
2018-12-13T18:56:50.126Z,73.30
2018-12-13T18:59:18.722Z,73.40
2018-12-13T19:01:47.325Z,73.60
2018-12-13T19:04:15.909Z,73.60
2018-12-13T19:06:44.546Z,73.60
2018-12-13T19:09:13.162Z,73.70
2018-12-13T19:11:41.791Z,73.90
2018-12-13T19:14:10.432Z,73.90
2018-12-13T19:16:39.053Z,74.10
2018-12-13T19:19:07.768Z,74.10
2018-12-13T19:21:36.394Z,74.40
2018-12-13T19:24:04.995Z,74.50
2018-12-13T19:26:33.877Z,74.30
2018-12-13T19:29:02.480Z,74.20
2018-12-13T19:31:31.106Z,74.20
2018-12-13T19:33:59.685Z,74.10
2018-12-13T19:36:28.312Z,73.90
2018-12-13T19:38:56.901Z,73.80
2018-12-13T19:41:25.498Z,73.90
2018-12-13T19:43:54.087Z,73.90
2018-12-13T19:46:22.685Z,74.00
2018-12-13T19:48:51.295Z,73.90
2018-12-13T19:51:19.925Z,74.00
2018-12-13T19:53:48.615Z,73.80
2018-12-13T19:56:17.222Z,73.80
2018-12-13T19:58:45.857Z,73.80
2018-12-13T20:01:14.483Z,73.90
2018-12-13T20:03:43.084Z,74.10
2018-12-13T20:06:11.707Z,74.20
2018-12-13T20:08:40.354Z,74.20
2018-12-13T20:11:08.969Z,74.20
2018-12-13T20:13:37.559Z,74.20
2018-12-13T20:16:06.201Z,74.20
2018-12-13T20:18:34.842Z,74.20
2018-12-13T20:21:03.459Z,74.30
2018-12-13T20:23:32.082Z,74.40
2018-12-13T20:26:00.691Z,74.50
2018-12-13T20:28:29.382Z,74.50
2018-12-13T20:30:58.057Z,74.50
2018-12-13T20:33:26.778Z,74.50
2018-12-13T20:35:55.413Z,74.60
2018-12-13T20:38:24.029Z,74.80
2018-12-13T20:40:52.655Z,74.80
2018-12-13T20:43:21.282Z,74.80
2018-12-13T20:45:49.895Z,74.80
2018-12-13T20:48:18.534Z,74.60
2018-12-13T20:50:47.173Z,74.30
2018-12-13T20:53:15.766Z,74.30
2018-12-13T20:55:44.407Z,74.00
2018-12-13T20:58:13.054Z,74.00
2018-12-13T21:00:41.675Z,74.00
2018-12-13T21:03:10.286Z,73.90
2018-12-13T21:05:38.898Z,73.50
2018-12-13T21:08:09.870Z,73.60
2018-12-13T21:10:39.421Z,73.90
2018-12-13T21:13:08.054Z,74.00
2018-12-13T21:15:36.656Z,73.90
2018-12-13T21:18:05.321Z,73.90
2018-12-13T21:20:33.945Z,73.90
2018-12-13T21:23:02.538Z,74.10
2018-12-13T21:25:31.141Z,74.00
2018-12-13T21:27:59.752Z,74.10
2018-12-13T21:30:28.375Z,74.10
2018-12-13T21:32:56.965Z,74.00
2018-12-13T21:35:25.590Z,74.20
2018-12-13T21:37:54.209Z,74.00
2018-12-13T21:40:22.823Z,74.00
2018-12-13T21:42:51.691Z,73.80
2018-12-13T21:45:20.327Z,73.50
2018-12-13T21:47:48.914Z,73.20
2018-12-13T21:50:17.534Z,73.20
2018-12-13T21:52:46.156Z,73.30
2018-12-13T21:55:14.769Z,74.20
2018-12-13T21:57:43.424Z,73.90
2018-12-13T22:00:12.419Z,73.60
2018-12-13T22:02:41.005Z,73.40
2018-12-13T22:05:09.590Z,73.30
2018-12-13T22:07:38.210Z,73.30
2018-12-13T22:10:07.570Z,73.20
2018-12-13T22:12:36.221Z,72.90
2018-12-13T22:15:05.453Z,73.00
2018-12-13T22:17:34.047Z,72.90
2018-12-13T22:20:02.626Z,72.60
2018-12-13T22:22:31.498Z,72.80
2018-12-13T22:25:00.110Z,72.90
2018-12-13T22:27:28.684Z,72.80
2018-12-13T22:29:57.274Z,72.90
2018-12-13T22:32:25.878Z,73.10
2018-12-13T22:34:54.626Z,73.40
2018-12-13T22:37:23.228Z,73.50
2018-12-13T22:39:51.834Z,73.60
2018-12-13T22:42:20.443Z,73.60
2018-12-13T22:44:49.030Z,73.50
2018-12-13T22:47:18.586Z,73.10
2018-12-13T22:49:47.206Z,73.10
2018-12-13T22:52:15.825Z,73.20
2018-12-13T22:54:44.614Z,73.10
2018-12-13T22:57:13.225Z,73.00
2018-12-13T22:59:41.757Z,73.10
2018-12-13T23:02:10.600Z,73.00
2018-12-13T23:04:39.163Z,72.80
2018-12-13T23:07:07.707Z,72.90
2018-12-13T23:09:36.230Z,73.10
2018-12-13T23:12:04.778Z,73.40
2018-12-13T23:14:33.422Z,73.30
2018-12-13T23:17:02.222Z,72.90
2018-12-13T23:19:30.781Z,73.20
2018-12-13T23:21:59.321Z,73.60
2018-12-13T23:24:27.882Z,73.60
2018-12-13T23:26:56.422Z,73.40
2018-12-13T23:29:24.963Z,73.50
2018-12-13T23:31:53.513Z,73.40
2018-12-13T23:34:22.047Z,73.30
2018-12-13T23:36:50.620Z,73.60
2018-12-13T23:39:19.511Z,73.50
2018-12-13T23:41:48.050Z,73.60
2018-12-13T23:44:16.589Z,73.50
2018-12-13T23:46:45.147Z,73.50
2018-12-13T23:49:13.676Z,73.50
2018-12-13T23:51:42.503Z,73.60
2018-12-13T23:54:11.035Z,73.60
2018-12-13T23:56:39.590Z,73.70
2018-12-13T23:59:08.241Z,73.80
